Decoded Metar for KPDK (PEACHTREE/DEKALB in GA, USA) (IATA:PDK) | Meteo·Mobile Aviation Weather
aviador You're here:

KPDK Decoded Metar

PEACHTREE/DEKALB in GA, USA
Report Time2019-01-21 22:53:00
UTC Time2019-01-21 23:45:05
Flight Rules vfr VFR
Wind120° at 03 kt
W.Decomp.*RWY 16: 2.5 kt HW 1.7 kt LCW
RWY 09: 2.5 kt HW 1.7 kt RCW
RWY 21: 0.3 kt HW 3 kt LCW
W.Rank120° ranks 29
Current wind is below 120° avg. (4.8)
Visibility9999 m
Phenomena:N/A
Clouds:N/A
Expected CloudBase > 6,800 ft AGL from Temp-Dew spread
CeilingNone
Temp04°C (ISA -9)
Dew Point-13°C (28% RH)
AAT-0.3°C
QNH1029 hPa
Density Alt-604 ft
Elevation991 ft
Report Wrong Elevation
Raw Report
KPDK 212253Z 12003KT 10SM CLR 04/M13 A3039 RMK AO2 SLP311
T00391128=

Extra information for KPDK:More info

Metar Taf Metar & Taf Last 4 Metars F.Rules Stats Wind Profile Meteogram Temp Stats Airport Information Weather charts Add Link Nearby VenuesMetar ALERT Operation Metar Decoded Social comments

AIRNAV info for KPDK